sensor_id;sensor_type;location;lat;lon;timestamp;P1;durP1;ratioP1;P2;durP2;ratioP2
62435;SDS011;48480;50.252;18.848;2023-01-26T00:01:27;16.20;;;9.70;;
62435;SDS011;48480;50.252;18.848;2023-01-26T00:03:55;17.80;;;10.40;;
62435;SDS011;48480;50.252;18.848;2023-01-26T00:08:49;16.80;;;9.60;;
62435;SDS011;48480;50.252;18.848;2023-01-26T00:11:17;15.40;;;9.20;;
62435;SDS011;48480;50.252;18.848;2023-01-26T00:13:48;14.50;;;8.20;;
62435;SDS011;48480;50.252;18.848;2023-01-26T00:16:15;15.90;;;9.50;;
62435;SDS011;48480;50.252;18.848;2023-01-26T00:18:41;19.10;;;10.40;;
62435;SDS011;48480;50.252;18.848;2023-01-26T00:21:10;16.80;;;9.70;;
62435;SDS011;48480;50.252;18.848;2023-01-26T00:23:38;17.90;;;9.50;;
62435;SDS011;48480;50.252;18.848;2023-01-26T00:26:08;16.80;;;9.50;;
62435;SDS011;48480;50.252;18.848;2023-01-26T00:28:35;13.60;;;8.70;;
62435;SDS011;48480;50.252;18.848;2023-01-26T00:31:01;16.70;;;9.70;;
62435;SDS011;48480;50.252;18.848;2023-01-26T00:33:33;16.00;;;9.80;;
62435;SDS011;48480;50.252;18.848;2023-01-26T00:35:59;15.30;;;10.20;;
62435;SDS011;48480;50.252;18.848;2023-01-26T00:38:24;16.90;;;9.80;;
62435;SDS011;48480;50.252;18.848;2023-01-26T00:40:50;18.30;;;10.50;;
62435;SDS011;48480;50.252;18.848;2023-01-26T00:43:16;16.70;;;9.60;;
62435;SDS011;48480;50.252;18.848;2023-01-26T00:45:41;16.90;;;9.90;;
62435;SDS011;48480;50.252;18.848;2023-01-26T00:48:07;18.60;;;10.90;;
62435;SDS011;48480;50.252;18.848;2023-01-26T00:50:33;17.10;;;10.50;;
62435;SDS011;48480;50.252;18.848;2023-01-26T00:52:59;16.60;;;10.30;;
62435;SDS011;48480;50.252;18.848;2023-01-26T00:55:25;18.40;;;10.90;;
62435;SDS011;48480;50.252;18.848;2023-01-26T01:00:25;16.30;;;9.90;;
62435;SDS011;48480;50.252;18.848;2023-01-26T01:02:51;18.50;;;10.90;;
62435;SDS011;48480;50.252;18.848;2023-01-26T01:05:17;18.00;;;11.50;;
62435;SDS011;48480;50.252;18.848;2023-01-26T01:07:42;18.10;;;11.50;;
62435;SDS011;48480;50.252;18.848;2023-01-26T01:10:08;24.10;;;13.20;;
62435;SDS011;48480;50.252;18.848;2023-01-26T01:12:34;19.30;;;11.30;;
62435;SDS011;48480;50.252;18.848;2023-01-26T01:15:00;17.10;;;10.70;;
62435;SDS011;48480;50.252;18.848;2023-01-26T01:17:25;20.20;;;11.90;;
62435;SDS011;48480;50.252;18.848;2023-01-26T01:19:51;18.20;;;11.40;;
62435;SDS011;48480;50.252;18.848;2023-01-26T01:22:16;17.90;;;11.00;;
62435;SDS011;48480;50.252;18.848;2023-01-26T01:24:42;20.60;;;11.90;;
62435;SDS011;48480;50.252;18.848;2023-01-26T01:27:08;20.40;;;12.30;;
62435;SDS011;48480;50.252;18.848;2023-01-26T01:29:33;18.90;;;10.90;;
62435;SDS011;48480;50.252;18.848;2023-01-26T01:31:59;20.40;;;12.50;;
62435;SDS011;48480;50.252;18.848;2023-01-26T01:34:24;21.20;;;11.30;;
62435;SDS011;48480;50.252;18.848;2023-01-26T01:36:50;20.70;;;11.90;;
62435;SDS011;48480;50.252;18.848;2023-01-26T01:39:16;22.40;;;13.10;;
62435;SDS011;48480;50.252;18.848;2023-01-26T01:41:42;20.90;;;12.10;;
62435;SDS011;48480;50.252;18.848;2023-01-26T01:44:14;22.40;;;12.90;;
62435;SDS011;48480;50.252;18.848;2023-01-26T01:47:02;23.30;;;13.80;;
62435;SDS011;48480;50.252;18.848;2023-01-26T01:57:31;20.70;;;11.30;;
62435;SDS011;48480;50.252;18.848;2023-01-26T02:00:09;16.30;;;9.80;;
62435;SDS011;48480;50.252;18.848;2023-01-26T02:02:37;17.50;;;10.10;;
62435;SDS011;48480;50.252;18.848;2023-01-26T02:05:06;23.10;;;12.20;;
62435;SDS011;48480;50.252;18.848;2023-01-26T02:07:40;20.50;;;12.30;;
62435;SDS011;48480;50.252;18.848;2023-01-26T02:10:05;22.20;;;11.50;;
62435;SDS011;48480;50.252;18.848;2023-01-26T02:12:43;19.50;;;10.30;;
62435;SDS011;48480;50.252;18.848;2023-01-26T02:15:12;20.50;;;11.90;;
62435;SDS011;48480;50.252;18.848;2023-01-26T02:17:38;19.40;;;10.70;;
62435;SDS011;48480;50.252;18.848;2023-01-26T02:23:13;21.30;;;11.40;;
62435;SDS011;48480;50.252;18.848;2023-01-26T02:28:17;19.00;;;11.70;;
62435;SDS011;48480;50.252;18.848;2023-01-26T02:30:45;18.60;;;10.70;;
62435;SDS011;48480;50.252;18.848;2023-01-26T02:33:17;18.60;;;10.50;;
62435;SDS011;48480;50.252;18.848;2023-01-26T02:35:53;19.50;;;10.40;;
62435;SDS011;48480;50.252;18.848;2023-01-26T02:38:31;18.60;;;10.50;;
62435;SDS011;48480;50.252;18.848;2023-01-26T02:41:26;17.30;;;10.30;;
62435;SDS011;48480;50.252;18.848;2023-01-26T02:44:10;20.00;;;10.90;;
62435;SDS011;48480;50.252;18.848;2023-01-26T02:46:37;20.70;;;11.50;;
62435;SDS011;48480;50.252;18.848;2023-01-26T02:49:03;19.20;;;11.70;;
62435;SDS011;48480;50.252;18.848;2023-01-26T02:51:48;20.30;;;10.50;;
62435;SDS011;48480;50.252;18.848;2023-01-26T02:54:13;20.00;;;11.00;;
62435;SDS011;48480;50.252;18.848;2023-01-26T02:56:59;19.50;;;10.60;;
62435;SDS011;48480;50.252;18.848;2023-01-26T02:59:25;18.80;;;10.80;;
62435;SDS011;48480;50.252;18.848;2023-01-26T03:01:50;19.60;;;10.60;;
62435;SDS011;48480;50.252;18.848;2023-01-26T03:04:17;17.30;;;9.40;;
62435;SDS011;48480;50.252;18.848;2023-01-26T03:06:43;19.30;;;10.40;;
62435;SDS011;48480;50.252;18.848;2023-01-26T03:09:09;19.90;;;10.50;;
62435;SDS011;48480;50.252;18.848;2023-01-26T03:11:34;18.60;;;10.30;;
62435;SDS011;48480;50.252;18.848;2023-01-26T03:14:06;18.70;;;10.40;;
62435;SDS011;48480;50.252;18.848;2023-01-26T03:16:36;18.30;;;10.90;;
62435;SDS011;48480;50.252;18.848;2023-01-26T03:19:01;22.40;;;11.70;;
62435;SDS011;48480;50.252;18.848;2023-01-26T03:21:27;20.50;;;11.60;;
62435;SDS011;48480;50.252;18.848;2023-01-26T03:24:12;17.90;;;10.80;;
62435;SDS011;48480;50.252;18.848;2023-01-26T03:26:57;21.60;;;11.30;;
62435;SDS011;48480;50.252;18.848;2023-01-26T03:29:42;17.50;;;10.70;;
62435;SDS011;48480;50.252;18.848;2023-01-26T03:32:08;26.20;;;13.20;;
62435;SDS011;48480;50.252;18.848;2023-01-26T03:34:34;21.10;;;11.60;;
62435;SDS011;48480;50.252;18.848;2023-01-26T03:37:00;22.00;;;12.50;;
62435;SDS011;48480;50.252;18.848;2023-01-26T03:39:25;21.50;;;12.00;;
62435;SDS011;48480;50.252;18.848;2023-01-26T03:42:10;21.10;;;11.20;;
62435;SDS011;48480;50.252;18.848;2023-01-26T03:44:54;25.30;;;13.00;;
62435;SDS011;48480;50.252;18.848;2023-01-26T03:47:38;22.50;;;10.70;;
62435;SDS011;48480;50.252;18.848;2023-01-26T03:50:21;21.40;;;10.80;;
62435;SDS011;48480;50.252;18.848;2023-01-26T03:53:13;21.30;;;11.70;;
62435;SDS011;48480;50.252;18.848;2023-01-26T03:56:03;21.60;;;11.50;;
62435;SDS011;48480;50.252;18.848;2023-01-26T03:58:55;17.10;;;9.90;;
62435;SDS011;48480;50.252;18.848;2023-01-26T04:01:22;18.90;;;10.70;;
62435;SDS011;48480;50.252;18.848;2023-01-26T04:03:52;23.00;;;11.10;;
62435;SDS011;48480;50.252;18.848;2023-01-26T04:06:38;17.30;;;10.90;;
62435;SDS011;48480;50.252;18.848;2023-01-26T04:09:25;20.20;;;11.60;;
62435;SDS011;48480;50.252;18.848;2023-01-26T04:11:50;22.60;;;12.90;;
62435;SDS011;48480;50.252;18.848;2023-01-26T04:14:16;23.90;;;13.70;;
62435;SDS011;48480;50.252;18.848;2023-01-26T04:17:01;29.60;;;16.70;;
62435;SDS011;48480;50.252;18.848;2023-01-26T04:19:46;23.70;;;16.10;;
62435;SDS011;48480;50.252;18.848;2023-01-26T04:22:33;30.60;;;17.10;;
62435;SDS011;48480;50.252;18.848;2023-01-26T04:25:08;34.30;;;16.30;;
62435;SDS011;48480;50.252;18.848;2023-01-26T04:27:35;22.30;;;13.50;;
62435;SDS011;48480;50.252;18.848;2023-01-26T04:30:01;23.50;;;12.70;;
62435;SDS011;48480;50.252;18.848;2023-01-26T04:32:28;20.90;;;12.00;;
62435;SDS011;48480;50.252;18.848;2023-01-26T04:34:54;19.60;;;11.10;;
62435;SDS011;48480;50.252;18.848;2023-01-26T04:37:19;18.10;;;11.30;;
62435;SDS011;48480;50.252;18.848;2023-01-26T04:39:45;20.20;;;11.50;;
62435;SDS011;48480;50.252;18.848;2023-01-26T04:42:10;21.40;;;12.10;;
62435;SDS011;48480;50.252;18.848;2023-01-26T04:44:35;23.50;;;12.20;;
62435;SDS011;48480;50.252;18.848;2023-01-26T04:47:01;27.90;;;15.30;;
62435;SDS011;48480;50.252;18.848;2023-01-26T04:49:26;25.40;;;14.50;;
62435;SDS011;48480;50.252;18.848;2023-01-26T04:51:52;26.80;;;14.50;;
62435;SDS011;48480;50.252;18.848;2023-01-26T04:54:17;23.60;;;14.20;;
62435;SDS011;48480;50.252;18.848;2023-01-26T04:56:43;25.00;;;14.30;;
62435;SDS011;48480;50.252;18.848;2023-01-26T04:59:09;22.50;;;13.50;;
62435;SDS011;48480;50.252;18.848;2023-01-26T05:01:35;19.50;;;11.70;;
62435;SDS011;48480;50.252;18.848;2023-01-26T05:04:01;21.90;;;12.10;;
62435;SDS011;48480;50.252;18.848;2023-01-26T05:06:28;22.10;;;11.60;;
62435;SDS011;48480;50.252;18.848;2023-01-26T05:08:54;19.20;;;11.30;;
62435;SDS011;48480;50.252;18.848;2023-01-26T05:11:20;22.10;;;12.40;;
62435;SDS011;48480;50.252;18.848;2023-01-26T05:13:46;24.30;;;14.30;;
62435;SDS011;48480;50.252;18.848;2023-01-26T05:16:12;22.20;;;12.30;;
62435;SDS011;48480;50.252;18.848;2023-01-26T05:18:38;18.40;;;11.70;;
62435;SDS011;48480;50.252;18.848;2023-01-26T05:21:03;18.90;;;11.60;;
62435;SDS011;48480;50.252;18.848;2023-01-26T05:23:29;24.00;;;12.20;;
62435;SDS011;48480;50.252;18.848;2023-01-26T05:25:54;22.10;;;12.00;;
62435;SDS011;48480;50.252;18.848;2023-01-26T05:28:20;23.20;;;12.40;;
62435;SDS011;48480;50.252;18.848;2023-01-26T05:30:46;21.80;;;11.90;;
62435;SDS011;48480;50.252;18.848;2023-01-26T05:33:12;19.00;;;12.20;;
62435;SDS011;48480;50.252;18.848;2023-01-26T05:35:38;20.40;;;11.70;;
62435;SDS011;48480;50.252;18.848;2023-01-26T05:38:03;21.20;;;12.40;;
62435;SDS011;48480;50.252;18.848;2023-01-26T05:40:29;27.60;;;14.60;;
62435;SDS011;48480;50.252;18.848;2023-01-26T05:42:54;25.60;;;14.90;;
62435;SDS011;48480;50.252;18.848;2023-01-26T05:45:20;27.50;;;15.40;;
62435;SDS011;48480;50.252;18.848;2023-01-26T05:47:46;29.40;;;14.40;;
62435;SDS011;48480;50.252;18.848;2023-01-26T05:50:13;26.90;;;15.00;;
62435;SDS011;48480;50.252;18.848;2023-01-26T05:52:40;27.00;;;14.40;;
62435;SDS011;48480;50.252;18.848;2023-01-26T05:55:06;27.60;;;14.30;;
62435;SDS011;48480;50.252;18.848;2023-01-26T05:57:32;24.60;;;13.70;;
62435;SDS011;48480;50.252;18.848;2023-01-26T05:59:57;26.40;;;14.20;;
62435;SDS011;48480;50.252;18.848;2023-01-26T06:02:23;24.80;;;13.70;;
62435;SDS011;48480;50.252;18.848;2023-01-26T06:04:51;24.20;;;12.70;;
62435;SDS011;48480;50.252;18.848;2023-01-26T06:07:16;26.40;;;12.90;;
62435;SDS011;48480;50.252;18.848;2023-01-26T06:09:42;22.70;;;12.80;;
62435;SDS011;48480;50.252;18.848;2023-01-26T06:12:15;22.30;;;13.30;;
62435;SDS011;48480;50.252;18.848;2023-01-26T06:14:43;22.80;;;12.20;;
62435;SDS011;48480;50.252;18.848;2023-01-26T06:17:09;25.40;;;13.70;;
62435;SDS011;48480;50.252;18.848;2023-01-26T06:19:35;24.60;;;15.20;;
62435;SDS011;48480;50.252;18.848;2023-01-26T06:22:02;24.40;;;14.70;;
62435;SDS011;48480;50.252;18.848;2023-01-26T06:24:29;25.80;;;15.40;;
62435;SDS011;48480;50.252;18.848;2023-01-26T06:26:55;28.40;;;16.10;;
62435;SDS011;48480;50.252;18.848;2023-01-26T06:29:20;26.60;;;14.80;;
62435;SDS011;48480;50.252;18.848;2023-01-26T06:31:46;24.10;;;13.80;;
62435;SDS011;48480;50.252;18.848;2023-01-26T06:34:11;25.20;;;14.10;;
62435;SDS011;48480;50.252;18.848;2023-01-26T06:36:37;26.10;;;14.20;;
62435;SDS011;48480;50.252;18.848;2023-01-26T06:39:03;20.20;;;12.40;;
62435;SDS011;48480;50.252;18.848;2023-01-26T06:41:28;23.40;;;12.80;;
62435;SDS011;48480;50.252;18.848;2023-01-26T06:43:53;21.70;;;13.10;;
62435;SDS011;48480;50.252;18.848;2023-01-26T06:46:19;22.40;;;12.00;;
62435;SDS011;48480;50.252;18.848;2023-01-26T06:48:45;27.00;;;14.60;;
62435;SDS011;48480;50.252;18.848;2023-01-26T06:53:43;23.70;;;12.80;;
62435;SDS011;48480;50.252;18.848;2023-01-26T06:56:21;26.20;;;14.10;;
62435;SDS011;48480;50.252;18.848;2023-01-26T06:58:48;23.80;;;13.00;;
62435;SDS011;48480;50.252;18.848;2023-01-26T07:01:15;28.80;;;14.50;;
62435;SDS011;48480;50.252;18.848;2023-01-26T07:03:42;24.50;;;14.40;;
62435;SDS011;48480;50.252;18.848;2023-01-26T07:06:08;27.80;;;13.20;;
62435;SDS011;48480;50.252;18.848;2023-01-26T07:08:37;25.60;;;15.00;;
62435;SDS011;48480;50.252;18.848;2023-01-26T07:11:04;25.70;;;15.20;;
62435;SDS011;48480;50.252;18.848;2023-01-26T07:13:30;21.60;;;14.20;;
62435;SDS011;48480;50.252;18.848;2023-01-26T07:16:02;28.20;;;14.90;;
62435;SDS011;48480;50.252;18.848;2023-01-26T07:18:30;24.30;;;15.40;;
62435;SDS011;48480;50.252;18.848;2023-01-26T07:21:03;28.50;;;17.90;;
62435;SDS011;48480;50.252;18.848;2023-01-26T07:23:30;27.50;;;16.20;;
62435;SDS011;48480;50.252;18.848;2023-01-26T07:25:56;25.60;;;14.20;;
62435;SDS011;48480;50.252;18.848;2023-01-26T07:28:24;26.50;;;15.00;;
62435;SDS011;48480;50.252;18.848;2023-01-26T07:30:50;29.00;;;16.90;;
62435;SDS011;48480;50.252;18.848;2023-01-26T07:33:16;25.70;;;16.00;;
62435;SDS011;48480;50.252;18.848;2023-01-26T07:35:41;25.40;;;14.50;;
62435;SDS011;48480;50.252;18.848;2023-01-26T07:38:07;23.30;;;14.80;;
62435;SDS011;48480;50.252;18.848;2023-01-26T07:40:32;26.50;;;14.40;;
62435;SDS011;48480;50.252;18.848;2023-01-26T07:42:58;25.70;;;15.30;;
62435;SDS011;48480;50.252;18.848;2023-01-26T07:45:24;26.40;;;14.10;;
62435;SDS011;48480;50.252;18.848;2023-01-26T07:47:53;26.70;;;14.10;;
62435;SDS011;48480;50.252;18.848;2023-01-26T07:50:19;22.40;;;14.50;;
62435;SDS011;48480;50.252;18.848;2023-01-26T07:52:46;24.20;;;14.70;;
62435;SDS011;48480;50.252;18.848;2023-01-26T07:55:12;26.50;;;14.60;;
62435;SDS011;48480;50.252;18.848;2023-01-26T07:57:38;27.60;;;15.80;;
62435;SDS011;48480;50.252;18.848;2023-01-26T08:00:05;25.70;;;14.70;;
62435;SDS011;48480;50.252;18.848;2023-01-26T08:02:33;28.30;;;14.90;;
62435;SDS011;48480;50.252;18.848;2023-01-26T08:04:59;28.60;;;14.80;;
62435;SDS011;48480;50.252;18.848;2023-01-26T08:07:27;17.50;;;9.70;;
62435;SDS011;48480;50.252;18.848;2023-01-26T08:09:52;25.50;;;16.00;;
62435;SDS011;48480;50.252;18.848;2023-01-26T08:12:17;24.50;;;13.90;;
62435;SDS011;48480;50.252;18.848;2023-01-26T08:14:43;25.80;;;15.30;;
62435;SDS011;48480;50.252;18.848;2023-01-26T08:17:08;24.90;;;14.70;;
62435;SDS011;48480;50.252;18.848;2023-01-26T08:19:34;25.50;;;14.80;;
62435;SDS011;48480;50.252;18.848;2023-01-26T08:22:00;29.70;;;15.10;;
62435;SDS011;48480;50.252;18.848;2023-01-26T08:24:25;24.70;;;13.90;;
62435;SDS011;48480;50.252;18.848;2023-01-26T08:26:52;24.10;;;13.90;;
62435;SDS011;48480;50.252;18.848;2023-01-26T08:29:17;28.70;;;14.40;;
62435;SDS011;48480;50.252;18.848;2023-01-26T08:31:45;23.10;;;13.40;;
62435;SDS011;48480;50.252;18.848;2023-01-26T08:34:10;25.30;;;14.50;;
62435;SDS011;48480;50.252;18.848;2023-01-26T08:36:37;25.40;;;15.40;;
62435;SDS011;48480;50.252;18.848;2023-01-26T08:39:03;24.10;;;13.40;;
62435;SDS011;48480;50.252;18.848;2023-01-26T08:41:28;24.20;;;13.90;;
62435;SDS011;48480;50.252;18.848;2023-01-26T08:43:55;24.70;;;14.80;;
62435;SDS011;48480;50.252;18.848;2023-01-26T08:46:24;23.20;;;11.90;;
62435;SDS011;48480;50.252;18.848;2023-01-26T08:48:51;27.90;;;14.60;;
62435;SDS011;48480;50.252;18.848;2023-01-26T08:51:19;29.10;;;15.70;;
62435;SDS011;48480;50.252;18.848;2023-01-26T08:53:45;26.30;;;15.10;;
62435;SDS011;48480;50.252;18.848;2023-01-26T08:56:11;24.90;;;14.90;;
62435;SDS011;48480;50.252;18.848;2023-01-26T08:58:37;28.90;;;15.40;;
62435;SDS011;48480;50.252;18.848;2023-01-26T09:01:06;27.50;;;15.60;;
62435;SDS011;48480;50.252;18.848;2023-01-26T09:03:34;27.20;;;14.60;;
62435;SDS011;48480;50.252;18.848;2023-01-26T09:06:04;22.60;;;14.30;;
62435;SDS011;48480;50.252;18.848;2023-01-26T09:08:30;26.20;;;15.30;;
62435;SDS011;48480;50.252;18.848;2023-01-26T09:10:56;24.30;;;13.60;;
62435;SDS011;48480;50.252;18.848;2023-01-26T09:13:22;24.50;;;13.60;;
62435;SDS011;48480;50.252;18.848;2023-01-26T09:15:48;25.20;;;14.80;;
62435;SDS011;48480;50.252;18.848;2023-01-26T09:18:14;24.80;;;14.70;;
62435;SDS011;48480;50.252;18.848;2023-01-26T09:20:41;23.30;;;12.40;;
62435;SDS011;48480;50.252;18.848;2023-01-26T09:23:06;30.70;;;15.90;;
62435;SDS011;48480;50.252;18.848;2023-01-26T09:25:37;24.10;;;14.40;;
62435;SDS011;48480;50.252;18.848;2023-01-26T09:28:04;27.30;;;16.80;;
62435;SDS011;48480;50.252;18.848;2023-01-26T09:30:30;23.60;;;14.70;;
62435;SDS011;48480;50.252;18.848;2023-01-26T09:32:57;24.20;;;14.70;;
62435;SDS011;48480;50.252;18.848;2023-01-26T09:35:24;26.20;;;15.80;;
62435;SDS011;48480;50.252;18.848;2023-01-26T09:37:51;25.20;;;16.20;;
62435;SDS011;48480;50.252;18.848;2023-01-26T09:40:36;24.20;;;14.30;;
62435;SDS011;48480;50.252;18.848;2023-01-26T09:43:19;21.20;;;12.70;;
62435;SDS011;48480;50.252;18.848;2023-01-26T09:48:41;25.20;;;16.40;;
62435;SDS011;48480;50.252;18.848;2023-01-26T09:57:13;23.40;;;14.80;;
62435;SDS011;48480;50.252;18.848;2023-01-26T09:59:49;25.10;;;15.10;;
62435;SDS011;48480;50.252;18.848;2023-01-26T10:02:48;24.00;;;13.60;;
62435;SDS011;48480;50.252;18.848;2023-01-26T10:08:15;28.60;;;15.60;;
62435;SDS011;48480;50.252;18.848;2023-01-26T10:10:45;27.30;;;16.00;;
62435;SDS011;48480;50.252;18.848;2023-01-26T10:13:15;29.40;;;16.70;;
62435;SDS011;48480;50.252;18.848;2023-01-26T10:15:43;27.00;;;16.20;;
62435;SDS011;48480;50.252;18.848;2023-01-26T10:18:17;26.70;;;15.70;;
62435;SDS011;48480;50.252;18.848;2023-01-26T10:20:49;29.40;;;16.30;;
62435;SDS011;48480;50.252;18.848;2023-01-26T10:25:52;28.50;;;16.90;;
62435;SDS011;48480;50.252;18.848;2023-01-26T10:30:59;28.50;;;17.90;;
62435;SDS011;48480;50.252;18.848;2023-01-26T10:35:57;26.50;;;16.30;;
62435;SDS011;48480;50.252;18.848;2023-01-26T10:38:27;25.00;;;16.00;;
62435;SDS011;48480;50.252;18.848;2023-01-26T10:43:42;29.60;;;16.90;;
62435;SDS011;48480;50.252;18.848;2023-01-26T10:46:36;29.10;;;17.60;;
62435;SDS011;48480;50.252;18.848;2023-01-26T10:51:32;31.40;;;18.30;;
62435;SDS011;48480;50.252;18.848;2023-01-26T10:54:32;26.30;;;15.20;;
62435;SDS011;48480;50.252;18.848;2023-01-26T10:56:56;26.60;;;15.10;;
62435;SDS011;48480;50.252;18.848;2023-01-26T10:59:27;25.00;;;14.60;;
62435;SDS011;48480;50.252;18.848;2023-01-26T11:02:00;26.60;;;16.40;;
62435;SDS011;48480;50.252;18.848;2023-01-26T11:07:38;27.10;;;16.20;;
62435;SDS011;48480;50.252;18.848;2023-01-26T11:10:25;30.20;;;16.80;;
62435;SDS011;48480;50.252;18.848;2023-01-26T11:13:15;30.20;;;16.60;;
62435;SDS011;48480;50.252;18.848;2023-01-26T11:15:46;26.60;;;15.70;;
62435;SDS011;48480;50.252;18.848;2023-01-26T11:24:14;28.30;;;16.90;;
62435;SDS011;48480;50.252;18.848;2023-01-26T11:35:54;31.40;;;16.50;;
62435;SDS011;48480;50.252;18.848;2023-01-26T11:38:36;26.90;;;14.20;;
62435;SDS011;48480;50.252;18.848;2023-01-26T11:41:30;22.10;;;13.10;;
62435;SDS011;48480;50.252;18.848;2023-01-26T11:58:47;20.70;;;12.40;;
62435;SDS011;48480;50.252;18.848;2023-01-26T12:01:21;27.90;;;16.40;;
62435;SDS011;48480;50.252;18.848;2023-01-26T12:03:53;24.00;;;14.60;;
62435;SDS011;48480;50.252;18.848;2023-01-26T12:06:28;24.10;;;14.10;;
62435;SDS011;48480;50.252;18.848;2023-01-26T12:18:00;27.10;;;15.20;;
62435;SDS011;48480;50.252;18.848;2023-01-26T12:20:41;26.90;;;15.10;;
62435;SDS011;48480;50.252;18.848;2023-01-26T12:23:55;26.20;;;14.50;;
62435;SDS011;48480;50.252;18.848;2023-01-26T12:26:22;23.30;;;13.70;;
62435;SDS011;48480;50.252;18.848;2023-01-26T12:31:33;21.40;;;13.10;;
62435;SDS011;48480;50.252;18.848;2023-01-26T12:34:13;26.80;;;15.30;;
62435;SDS011;48480;50.252;18.848;2023-01-26T12:36:54;26.40;;;15.50;;
62435;SDS011;48480;50.252;18.848;2023-01-26T12:45:19;25.00;;;13.80;;
62435;SDS011;48480;50.252;18.848;2023-01-26T12:47:50;24.80;;;13.70;;
62435;SDS011;48480;50.252;18.848;2023-01-26T12:57:57;27.50;;;15.80;;
62435;SDS011;48480;50.252;18.848;2023-01-26T13:00:33;27.50;;;16.20;;
62435;SDS011;48480;50.252;18.848;2023-01-26T13:03:05;26.20;;;16.10;;
62435;SDS011;48480;50.252;18.848;2023-01-26T13:10:59;30.90;;;17.70;;
62435;SDS011;48480;50.252;18.848;2023-01-26T13:18:50;30.20;;;16.90;;
62435;SDS011;48480;50.252;18.848;2023-01-26T13:26:48;29.50;;;16.40;;
62435;SDS011;48480;50.252;18.848;2023-01-26T13:34:45;29.60;;;16.40;;
62435;SDS011;48480;50.252;18.848;2023-01-26T13:40:22;33.60;;;20.00;;
62435;SDS011;48480;50.252;18.848;2023-01-26T13:48:53;27.90;;;15.20;;
62435;SDS011;48480;50.252;18.848;2023-01-26T13:51:49;29.50;;;16.60;;
62435;SDS011;48480;50.252;18.848;2023-01-26T13:54:31;22.30;;;13.70;;
62435;SDS011;48480;50.252;18.848;2023-01-26T13:57:13;27.20;;;16.60;;
62435;SDS011;48480;50.252;18.848;2023-01-26T14:00:02;26.80;;;15.10;;
62435;SDS011;48480;50.252;18.848;2023-01-26T14:02:37;27.70;;;17.40;;
62435;SDS011;48480;50.252;18.848;2023-01-26T14:05:22;26.20;;;14.80;;
62435;SDS011;48480;50.252;18.848;2023-01-26T14:07:50;26.80;;;15.70;;
62435;SDS011;48480;50.252;18.848;2023-01-26T14:10:30;25.70;;;15.40;;
62435;SDS011;48480;50.252;18.848;2023-01-26T14:13:47;25.80;;;15.30;;
62435;SDS011;48480;50.252;18.848;2023-01-26T14:19:22;26.70;;;14.70;;
62435;SDS011;48480;50.252;18.848;2023-01-26T14:22:00;26.40;;;15.30;;
62435;SDS011;48480;50.252;18.848;2023-01-26T14:24:38;27.10;;;14.10;;
62435;SDS011;48480;50.252;18.848;2023-01-26T14:27:28;25.30;;;14.30;;
62435;SDS011;48480;50.252;18.848;2023-01-26T14:30:00;26.30;;;14.80;;
62435;SDS011;48480;50.252;18.848;2023-01-26T14:32:31;25.20;;;15.20;;
62435;SDS011;48480;50.252;18.848;2023-01-26T14:35:15;26.00;;;15.20;;
62435;SDS011;48480;50.252;18.848;2023-01-26T14:37:48;31.40;;;16.20;;
62435;SDS011;48480;50.252;18.848;2023-01-26T14:44:01;29.80;;;16.10;;
62435;SDS011;48480;50.252;18.848;2023-01-26T14:52:28;30.40;;;17.40;;
62435;SDS011;48480;50.252;18.848;2023-01-26T14:55:05;31.20;;;16.60;;
62435;SDS011;48480;50.252;18.848;2023-01-26T14:57:42;29.60;;;16.70;;
62435;SDS011;48480;50.252;18.848;2023-01-26T15:05:39;28.60;;;14.90;;
62435;SDS011;48480;50.252;18.848;2023-01-26T15:10:57;42.30;;;26.10;;
62435;SDS011;48480;50.252;18.848;2023-01-26T15:13:44;34.00;;;19.80;;
62435;SDS011;48480;50.252;18.848;2023-01-26T15:16:21;35.30;;;20.40;;
62435;SDS011;48480;50.252;18.848;2023-01-26T15:18:58;30.50;;;19.60;;
62435;SDS011;48480;50.252;18.848;2023-01-26T15:21:28;30.30;;;17.00;;
62435;SDS011;48480;50.252;18.848;2023-01-26T15:23:56;32.20;;;19.10;;
62435;SDS011;48480;50.252;18.848;2023-01-26T15:26:32;34.00;;;18.70;;
62435;SDS011;48480;50.252;18.848;2023-01-26T15:29:00;33.20;;;18.80;;
62435;SDS011;48480;50.252;18.848;2023-01-26T15:31:31;33.90;;;19.20;;
62435;SDS011;48480;50.252;18.848;2023-01-26T15:33:59;36.10;;;20.50;;
62435;SDS011;48480;50.252;18.848;2023-01-26T15:39:08;31.80;;;17.50;;
62435;SDS011;48480;50.252;18.848;2023-01-26T15:41:35;31.00;;;18.10;;
62435;SDS011;48480;50.252;18.848;2023-01-26T15:44:00;28.60;;;16.00;;
62435;SDS011;48480;50.252;18.848;2023-01-26T15:46:26;27.30;;;17.20;;
62435;SDS011;48480;50.252;18.848;2023-01-26T15:48:52;30.70;;;17.60;;
62435;SDS011;48480;50.252;18.848;2023-01-26T15:51:18;29.00;;;17.70;;
62435;SDS011;48480;50.252;18.848;2023-01-26T15:53:44;29.70;;;17.10;;
62435;SDS011;48480;50.252;18.848;2023-01-26T15:56:13;29.70;;;18.10;;
62435;SDS011;48480;50.252;18.848;2023-01-26T15:58:40;29.10;;;17.30;;
62435;SDS011;48480;50.252;18.848;2023-01-26T16:01:08;32.50;;;17.50;;
62435;SDS011;48480;50.252;18.848;2023-01-26T16:03:38;29.70;;;17.20;;
62435;SDS011;48480;50.252;18.848;2023-01-26T16:06:04;38.20;;;19.30;;
62435;SDS011;48480;50.252;18.848;2023-01-26T16:08:30;32.40;;;18.70;;
62435;SDS011;48480;50.252;18.848;2023-01-26T16:10:55;33.50;;;19.60;;
62435;SDS011;48480;50.252;18.848;2023-01-26T16:13:21;33.70;;;19.20;;
62435;SDS011;48480;50.252;18.848;2023-01-26T16:15:50;33.40;;;18.20;;
62435;SDS011;48480;50.252;18.848;2023-01-26T16:18:17;33.90;;;19.40;;
62435;SDS011;48480;50.252;18.848;2023-01-26T16:20:44;32.70;;;18.00;;
62435;SDS011;48480;50.252;18.848;2023-01-26T16:25:45;35.90;;;20.70;;
62435;SDS011;48480;50.252;18.848;2023-01-26T16:28:11;30.20;;;18.40;;
62435;SDS011;48480;50.252;18.848;2023-01-26T16:30:37;36.70;;;20.90;;
62435;SDS011;48480;50.252;18.848;2023-01-26T16:33:02;36.70;;;21.30;;
62435;SDS011;48480;50.252;18.848;2023-01-26T16:35:28;37.30;;;21.20;;
62435;SDS011;48480;50.252;18.848;2023-01-26T16:37:54;34.10;;;20.30;;
62435;SDS011;48480;50.252;18.848;2023-01-26T16:40:19;40.00;;;22.40;;
62435;SDS011;48480;50.252;18.848;2023-01-26T16:42:46;36.30;;;19.60;;
62435;SDS011;48480;50.252;18.848;2023-01-26T16:45:21;42.40;;;22.60;;
62435;SDS011;48480;50.252;18.848;2023-01-26T16:47:49;39.90;;;24.20;;
62435;SDS011;48480;50.252;18.848;2023-01-26T16:50:18;43.80;;;23.10;;
62435;SDS011;48480;50.252;18.848;2023-01-26T16:52:45;45.60;;;23.70;;
62435;SDS011;48480;50.252;18.848;2023-01-26T16:55:11;46.40;;;25.20;;
62435;SDS011;48480;50.252;18.848;2023-01-26T16:57:40;43.80;;;23.50;;
62435;SDS011;48480;50.252;18.848;2023-01-26T17:00:12;42.10;;;24.70;;
62435;SDS011;48480;50.252;18.848;2023-01-26T17:02:41;52.40;;;26.20;;
62435;SDS011;48480;50.252;18.848;2023-01-26T17:05:20;60.10;;;30.50;;
62435;SDS011;48480;50.252;18.848;2023-01-26T17:07:48;80.60;;;40.00;;